createdAt,value
2024-05-09T00:00:35.837Z,100.00
2024-05-09T00:03:10.186Z,100.00
2024-05-09T00:05:38.613Z,99.77
2024-05-09T00:08:06.756Z,100.00
2024-05-09T00:10:37.229Z,100.00
2024-05-09T00:13:09.957Z,100.00
2024-05-09T00:15:37.316Z,100.00
2024-05-09T00:18:04.992Z,100.00
2024-05-09T00:20:38.400Z,100.00
2024-05-09T00:23:13.825Z,100.00
2024-05-09T00:25:42.929Z,100.00
2024-05-09T00:28:09.896Z,100.00
2024-05-09T00:30:37.418Z,100.00
2024-05-09T00:33:08.965Z,100.00
2024-05-09T00:35:37.077Z,100.00
2024-05-09T00:38:04.381Z,100.00
2024-05-09T00:40:40.054Z,100.00
2024-05-09T00:43:10.489Z,100.00
2024-05-09T00:45:37.252Z,100.00
2024-05-09T00:48:08.392Z,100.00
2024-05-09T00:50:39.636Z,100.00
2024-05-09T00:53:08.349Z,100.00
2024-05-09T00:55:36.025Z,100.00
2024-05-09T00:58:04.091Z,100.00
2024-05-09T01:00:37.959Z,100.00
2024-05-09T01:03:07.143Z,100.00
2024-05-09T01:05:34.704Z,100.00
2024-05-09T01:08:01.805Z,100.00
2024-05-09T01:10:34.094Z,100.00
2024-05-09T01:13:03.184Z,100.00
2024-05-09T01:15:29.682Z,100.00
2024-05-09T01:17:57.684Z,100.00
2024-05-09T01:20:36.390Z,100.00
2024-05-09T01:23:08.217Z,100.00
2024-05-09T01:25:35.535Z,100.00
2024-05-09T01:28:02.377Z,100.00
2024-05-09T01:30:34.608Z,100.00
2024-05-09T01:33:04.438Z,100.00
2024-05-09T01:35:31.544Z,100.00
2024-05-09T01:37:58.112Z,100.00
2024-05-09T01:40:33.581Z,100.00
2024-05-09T01:43:04.833Z,100.00
2024-05-09T01:45:31.465Z,100.00
2024-05-09T01:47:58.379Z,100.00
2024-05-09T01:50:34.091Z,100.00
2024-05-09T01:53:05.480Z,100.00
2024-05-09T01:55:32.112Z,100.00
2024-05-09T01:57:58.623Z,100.00
2024-05-09T02:00:37.079Z,100.00
2024-05-09T02:03:14.346Z,100.00
2024-05-09T02:05:44.277Z,100.00
2024-05-09T02:08:15.601Z,100.00
2024-05-09T02:10:44.058Z,100.00
2024-05-09T02:13:10.916Z,100.00
2024-05-09T02:15:37.476Z,100.00
2024-05-09T02:18:04.568Z,100.00
2024-05-09T02:20:36.166Z,100.00
2024-05-09T02:23:05.202Z,100.00
2024-05-09T02:25:32.783Z,100.00
2024-05-09T02:27:59.627Z,100.00
2024-05-09T02:30:35.918Z,100.00
2024-05-09T02:33:06.897Z,100.00
2024-05-09T02:35:33.869Z,100.00
2024-05-09T02:38:00.610Z,100.00
2024-05-09T02:40:35.678Z,100.00
2024-05-09T02:43:04.841Z,100.00
2024-05-09T02:45:31.371Z,100.00
2024-05-09T02:47:58.242Z,100.00
2024-05-09T02:50:33.526Z,100.00
2024-05-09T02:53:04.947Z,100.00
2024-05-09T02:55:31.633Z,100.00
2024-05-09T02:57:58.184Z,100.00
2024-05-09T03:00:34.193Z,100.00
2024-05-09T03:03:06.039Z,100.00
2024-05-09T03:05:33.114Z,100.00
2024-05-09T03:07:59.875Z,100.00
2024-05-09T03:10:29.018Z,100.00
2024-05-09T03:13:05.799Z,100.00
2024-05-09T03:15:33.008Z,100.00
2024-05-09T03:18:00.939Z,100.00
2024-05-09T03:20:33.392Z,100.00
2024-05-09T03:23:02.287Z,100.00
2024-05-09T03:25:29.004Z,100.00
2024-05-09T03:27:55.587Z,100.00
2024-05-09T03:30:31.116Z,100.00
2024-05-09T03:33:14.128Z,100.00
2024-05-09T03:35:41.816Z,100.00
2024-05-09T03:38:08.693Z,100.00
2024-05-09T03:40:35.503Z,100.00
2024-05-09T03:43:02.039Z,100.00
2024-05-09T03:45:28.544Z,100.00
2024-05-09T03:47:55.283Z,100.00
2024-05-09T03:50:29.995Z,100.00
2024-05-09T03:53:01.354Z,100.00
2024-05-09T03:55:28.454Z,100.00
2024-05-09T03:57:55.129Z,100.00
2024-05-09T04:00:30.757Z,100.00
2024-05-09T04:03:03.956Z,100.00
2024-05-09T04:05:31.216Z,100.00
2024-05-09T04:07:58.291Z,100.00
2024-05-09T04:10:32.377Z,100.00
2024-05-09T04:13:00.642Z,100.00
2024-05-09T04:15:27.228Z,100.00
2024-05-09T04:17:54.037Z,100.00
2024-05-09T04:20:32.378Z,100.00
2024-05-09T04:23:05.420Z,100.00
2024-05-09T04:25:32.151Z,100.00
2024-05-09T04:27:58.684Z,100.00
2024-05-09T04:30:34.570Z,100.00
2024-05-09T04:33:05.882Z,100.00
2024-05-09T04:35:32.754Z,100.00
2024-05-09T04:37:59.444Z,100.00
2024-05-09T04:40:33.025Z,100.00
2024-05-09T04:43:03.048Z,100.00
2024-05-09T04:45:29.565Z,100.00
2024-05-09T04:47:56.296Z,99.61
2024-05-09T04:50:30.314Z,98.42
2024-05-09T04:53:03.583Z,95.75
2024-05-09T04:55:30.424Z,94.56
2024-05-09T04:57:56.975Z,92.99
2024-05-09T05:00:32.386Z,91.62
2024-05-09T05:03:06.815Z,91.00
2024-05-09T05:05:34.531Z,90.42
2024-05-09T05:08:01.206Z,89.67
2024-05-09T05:10:33.851Z,88.80
2024-05-09T05:13:23.766Z,88.30
2024-05-09T05:15:58.280Z,87.60
2024-05-09T05:18:26.883Z,87.35
2024-05-09T05:20:55.417Z,87.28
2024-05-09T05:23:23.142Z,85.85
2024-05-09T05:25:52.407Z,85.61
2024-05-09T05:28:19.880Z,85.16
2024-05-09T05:30:46.522Z,85.83
2024-05-09T05:33:15.449Z,84.16
2024-05-09T05:35:42.414Z,84.60
2024-05-09T05:38:10.101Z,84.13
2024-05-09T05:40:38.685Z,83.72
2024-05-09T05:43:10.521Z,84.48
2024-05-09T05:45:37.694Z,84.04
2024-05-09T05:48:06.355Z,83.62
2024-05-09T05:50:36.760Z,83.17
2024-05-09T05:53:10.285Z,82.74
2024-05-09T05:55:39.318Z,82.69
2024-05-09T05:58:08.914Z,82.69
2024-05-09T06:00:38.988Z,83.00
2024-05-09T06:03:07.902Z,83.01
2024-05-09T06:05:36.306Z,83.88
2024-05-09T06:08:02.892Z,83.27
2024-05-09T06:10:37.617Z,82.35
2024-05-09T06:13:06.748Z,84.44
2024-05-09T06:15:33.346Z,82.39
2024-05-09T06:18:00.093Z,85.02
2024-05-09T06:20:34.836Z,85.66
2024-05-09T06:23:04.385Z,89.00
2024-05-09T06:25:31.331Z,86.35
2024-05-09T06:27:57.950Z,86.81
2024-05-09T06:30:30.941Z,87.71
2024-05-09T06:33:06.085Z,86.91
2024-05-09T06:35:33.383Z,88.01
2024-05-09T06:38:00.172Z,87.94
2024-05-09T06:40:35.996Z,89.38
2024-05-09T06:43:05.233Z,87.53
2024-05-09T06:45:31.859Z,89.29
2024-05-09T06:47:58.522Z,88.88
2024-05-09T06:50:28.361Z,88.70
2024-05-09T06:52:58.419Z,88.43
2024-05-09T06:55:24.990Z,88.21
2024-05-09T06:57:51.540Z,89.18
2024-05-09T07:00:26.881Z,88.69
2024-05-09T07:02:59.018Z,88.47
2024-05-09T07:05:26.832Z,87.26
2024-05-09T07:07:53.711Z,88.59
2024-05-09T07:10:28.475Z,88.38
2024-05-09T07:12:59.305Z,87.93
2024-05-09T07:15:25.829Z,87.74
2024-05-09T07:17:52.613Z,88.78
2024-05-09T07:20:27.594Z,87.32
2024-05-09T07:23:05.494Z,87.08
2024-05-09T07:25:32.121Z,86.49
2024-05-09T07:27:58.755Z,87.18
2024-05-09T07:30:32.711Z,84.69
2024-05-09T07:33:01.513Z,85.93
2024-05-09T07:35:28.919Z,86.32
2024-05-09T07:37:55.658Z,86.30
2024-05-09T07:40:31.850Z,86.44
2024-05-09T07:43:07.474Z,84.72
2024-05-09T07:52:23.643Z,83.84
2024-05-09T07:53:38.694Z,82.20
2024-05-09T07:56:07.936Z,82.15
2024-05-09T07:58:35.556Z,83.04
2024-05-09T08:01:05.037Z,82.00
2024-05-09T08:03:31.939Z,80.43
2024-05-09T08:05:58.520Z,81.55
2024-05-09T08:08:25.049Z,80.14
2024-05-09T08:10:51.786Z,78.90
2024-05-09T08:13:18.512Z,78.71
2024-05-09T08:15:45.213Z,78.69
2024-05-09T08:18:12.207Z,75.39
2024-05-09T08:20:39.618Z,77.72
2024-05-09T08:23:06.414Z,76.03
2024-05-09T08:25:33.238Z,75.14
2024-05-09T08:27:59.923Z,75.51
2024-05-09T08:30:33.409Z,75.53
2024-05-09T08:33:04.617Z,73.55
2024-05-09T08:35:31.861Z,67.63
2024-05-09T08:37:58.596Z,68.94
2024-05-09T08:40:32.918Z,68.73
2024-05-09T08:43:02.867Z,69.12
2024-05-09T08:45:30.214Z,66.41
2024-05-09T08:48:01.449Z,63.47
2024-05-09T08:50:35.898Z,62.87
2024-05-09T08:53:05.859Z,63.01
2024-05-09T08:55:32.644Z,59.98
2024-05-09T08:58:01.678Z,59.98
2024-05-09T09:00:36.096Z,58.03
2024-05-09T09:03:06.796Z,58.29
2024-05-09T09:05:38.566Z,59.74
2024-05-09T09:08:09.028Z,56.00
2024-05-09T09:10:37.859Z,57.04
2024-05-09T09:13:07.153Z,57.11
2024-05-09T09:15:33.796Z,53.87
2024-05-09T09:18:01.318Z,52.97
2024-05-09T09:20:35.782Z,52.77
2024-05-09T09:23:04.466Z,52.63
2024-05-09T09:25:31.390Z,50.17
2024-05-09T09:27:58.425Z,49.76
2024-05-09T09:30:35.034Z,51.84
2024-05-09T09:33:04.725Z,51.08
2024-05-09T09:35:31.492Z,51.40
2024-05-09T09:38:02.477Z,51.02
2024-05-09T09:40:37.164Z,50.40
2024-05-09T09:43:14.967Z,48.70
2024-05-09T09:45:43.535Z,48.03
2024-05-09T09:48:10.812Z,47.95
2024-05-09T09:50:37.702Z,48.41
2024-05-09T09:53:07.010Z,47.67
2024-05-09T09:55:34.708Z,47.83
2024-05-09T09:58:01.474Z,45.97
2024-05-09T10:00:32.960Z,49.39
2024-05-09T10:03:01.129Z,46.41
2024-05-09T10:05:28.661Z,46.24
2024-05-09T10:07:56.614Z,45.93
2024-05-09T10:10:31.572Z,46.92
2024-05-09T10:13:07.271Z,46.40
2024-05-09T10:15:50.236Z,44.04
2024-05-09T10:18:17.430Z,44.14
2024-05-09T10:20:45.102Z,44.73
2024-05-09T10:23:30.865Z,43.19
2024-05-09T10:26:01.841Z,44.44
2024-05-09T10:28:32.812Z,43.28
2024-05-09T10:31:09.747Z,42.06
2024-05-09T10:33:48.580Z,42.72
2024-05-09T10:36:19.432Z,42.25
2024-05-09T10:38:46.034Z,41.91
2024-05-09T10:41:12.797Z,43.13
2024-05-09T10:43:40.916Z,42.69
2024-05-09T10:46:08.126Z,43.39
2024-05-09T10:48:36.737Z,42.95
2024-05-09T10:51:04.333Z,42.82
2024-05-09T10:53:48.960Z,43.69
2024-05-09T10:56:16.318Z,42.78
2024-05-09T10:58:43.011Z,41.98
2024-05-09T11:01:10.840Z,42.75
2024-05-09T11:03:38.419Z,43.30
2024-05-09T11:06:06.391Z,42.22
2024-05-09T11:08:34.000Z,42.19
2024-05-09T11:11:02.801Z,41.63
2024-05-09T11:13:34.760Z,42.81
2024-05-09T11:16:02.169Z,41.82
2024-05-09T11:18:33.523Z,41.57
2024-05-09T11:21:02.925Z,42.07
2024-05-09T11:23:32.594Z,42.07
2024-05-09T11:25:59.470Z,42.48
2024-05-09T11:28:29.216Z,42.04
2024-05-09T11:31:08.946Z,43.54
2024-05-09T11:33:38.339Z,42.88
2024-05-09T11:36:06.221Z,42.45
2024-05-09T11:38:33.117Z,42.55
2024-05-09T11:40:59.622Z,43.58
2024-05-09T11:43:26.143Z,44.87
2024-05-09T11:45:52.860Z,43.86
2024-05-09T11:48:19.713Z,44.11
2024-05-09T11:50:46.345Z,41.12
2024-05-09T11:53:12.875Z,39.64
2024-05-09T11:55:39.376Z,40.24
2024-05-09T11:58:05.971Z,42.60
2024-05-09T12:00:36.990Z,42.49
2024-05-09T12:03:05.686Z,42.59
2024-05-09T12:05:33.992Z,41.37
2024-05-09T12:08:01.128Z,43.77
2024-05-09T12:10:33.211Z,41.05
2024-05-09T12:13:02.690Z,42.37
2024-05-09T12:15:29.845Z,42.08
2024-05-09T12:17:59.013Z,41.66
2024-05-09T12:20:35.425Z,41.76
2024-05-09T12:23:05.314Z,40.09
2024-05-09T12:25:31.887Z,40.58
2024-05-09T12:27:58.489Z,39.82
2024-05-09T12:30:35.246Z,39.25
2024-05-09T12:33:05.799Z,39.72
2024-05-09T12:35:32.689Z,40.08
2024-05-09T12:37:59.222Z,39.31
2024-05-09T12:40:34.395Z,40.22
2024-05-09T12:43:05.030Z,41.77
2024-05-09T12:45:31.948Z,41.72
2024-05-09T12:47:58.850Z,41.55
2024-05-09T12:50:31.936Z,40.09
2024-05-09T12:53:00.821Z,40.00
2024-05-09T12:55:28.464Z,39.58
2024-05-09T12:57:57.237Z,40.68
2024-05-09T13:00:31.059Z,40.55
2024-05-09T13:03:00.546Z,39.55
2024-05-09T13:05:27.532Z,41.06
2024-05-09T13:07:54.269Z,39.11
2024-05-09T13:10:29.015Z,41.88
2024-05-09T13:13:00.003Z,40.51
2024-05-09T13:15:27.012Z,40.94
2024-05-09T13:17:54.813Z,40.86
2024-05-09T13:20:29.458Z,40.39
2024-05-09T13:23:01.854Z,39.46
2024-05-09T13:25:28.500Z,40.47
2024-05-09T13:27:55.909Z,41.13
2024-05-09T13:30:29.601Z,41.00
2024-05-09T13:33:05.544Z,40.39
2024-05-09T13:35:34.372Z,40.86
2024-05-09T13:38:02.039Z,41.90
2024-05-09T13:40:33.639Z,40.13
2024-05-09T13:43:02.688Z,40.05
2024-05-09T13:45:29.411Z,40.17
2024-05-09T13:47:56.424Z,41.55
2024-05-09T13:50:31.294Z,41.27
2024-05-09T13:53:02.144Z,40.72
2024-05-09T13:55:28.839Z,41.71
2024-05-09T13:57:56.129Z,39.62
2024-05-09T14:00:33.196Z,41.11
2024-05-09T14:03:09.711Z,38.97
2024-05-09T14:05:36.522Z,39.40
2024-05-09T14:08:03.273Z,40.54
2024-05-09T14:10:31.856Z,39.88
2024-05-09T14:12:59.250Z,41.09
2024-05-09T14:15:25.871Z,39.12
2024-05-09T14:17:52.509Z,39.84
2024-05-09T14:20:28.582Z,40.29
2024-05-09T14:22:58.234Z,39.16
2024-05-09T14:25:26.461Z,40.03
2024-05-09T14:27:53.969Z,39.96
2024-05-09T14:30:30.140Z,40.60
2024-05-09T14:33:02.555Z,40.09
2024-05-09T14:35:29.180Z,40.47
2024-05-09T14:37:55.721Z,39.39
2024-05-09T14:40:35.508Z,39.21
2024-05-09T14:43:07.421Z,39.96
2024-05-09T14:45:34.643Z,40.10
2024-05-09T14:48:02.277Z,39.99
2024-05-09T14:50:35.431Z,39.27
2024-05-09T14:53:06.385Z,40.01
2024-05-09T14:55:35.715Z,41.29
2024-05-09T14:58:03.229Z,40.40
2024-05-09T15:00:35.577Z,40.65
2024-05-09T15:03:03.623Z,40.17
2024-05-09T15:05:30.446Z,41.06
2024-05-09T15:07:57.944Z,39.47
2024-05-09T15:10:33.490Z,39.80
2024-05-09T15:13:02.398Z,40.63
2024-05-09T15:15:29.077Z,39.93
2024-05-09T15:17:55.963Z,40.63
2024-05-09T15:20:31.028Z,41.03
2024-05-09T15:23:02.044Z,42.08
2024-05-09T15:25:28.746Z,40.64
2024-05-09T15:27:55.518Z,42.59
2024-05-09T15:32:51.936Z,40.96
2024-05-09T15:35:18.527Z,41.53
2024-05-09T15:37:48.123Z,39.72
2024-05-09T15:40:18.916Z,40.98
2024-05-09T15:42:53.244Z,40.94
2024-05-09T15:45:19.811Z,40.49
2024-05-09T15:47:46.767Z,41.82
2024-05-09T15:50:20.444Z,39.87
2024-05-09T15:52:54.778Z,40.37
2024-05-09T15:55:21.308Z,40.48
2024-05-09T15:57:48.062Z,40.62
2024-05-09T16:00:24.663Z,40.27
2024-05-09T16:03:00.073Z,40.67
2024-05-09T16:05:27.033Z,41.56
2024-05-09T16:07:54.008Z,41.65
2024-05-09T16:10:25.855Z,42.81
2024-05-09T16:12:58.430Z,42.15
2024-05-09T16:15:25.161Z,42.74
2024-05-09T16:17:51.830Z,41.48
2024-05-09T16:20:29.395Z,42.16
2024-05-09T16:23:04.798Z,40.99
2024-05-09T16:25:31.460Z,41.61
2024-05-09T16:27:58.247Z,42.25
2024-05-09T16:30:31.724Z,41.20
2024-05-09T16:33:02.131Z,41.44
2024-05-09T16:35:28.852Z,40.50
2024-05-09T16:37:55.559Z,41.17
2024-05-09T16:40:30.114Z,40.25
2024-05-09T16:43:04.651Z,40.14
2024-05-09T16:45:31.695Z,40.31
2024-05-09T16:47:59.363Z,41.08
2024-05-09T16:50:31.131Z,42.61
2024-05-09T16:53:00.236Z,41.68
2024-05-09T16:55:27.242Z,42.10
2024-05-09T16:57:54.629Z,42.84
2024-05-09T17:00:31.253Z,43.74
2024-05-09T17:03:06.649Z,41.79
2024-05-09T17:05:34.055Z,42.04
2024-05-09T17:08:01.228Z,42.84
2024-05-09T17:10:32.662Z,42.62
2024-05-09T17:13:01.858Z,43.45
2024-05-09T17:15:28.667Z,43.02
2024-05-09T17:17:55.853Z,42.98
2024-05-09T17:20:29.664Z,42.57
2024-05-09T17:23:01.649Z,42.85
2024-05-09T17:25:28.358Z,42.32
2024-05-09T17:27:55.306Z,43.78
2024-05-09T17:30:29.046Z,43.16
2024-05-09T17:33:02.040Z,43.61
2024-05-09T17:35:28.845Z,43.04
2024-05-09T17:37:55.609Z,43.39
2024-05-09T17:40:30.788Z,44.43
2024-05-09T17:43:01.210Z,45.20
2024-05-09T17:45:27.959Z,45.31
2024-05-09T17:47:54.925Z,45.30
2024-05-09T17:50:27.647Z,45.70
2024-05-09T17:53:00.799Z,46.40
2024-05-09T17:55:27.582Z,47.28
2024-05-09T17:57:54.430Z,48.22
2024-05-09T18:00:29.251Z,48.82
2024-05-09T18:03:04.170Z,48.39
2024-05-09T18:05:31.046Z,48.61
2024-05-09T18:07:57.919Z,49.55
2024-05-09T18:10:32.559Z,51.54
2024-05-09T18:13:03.234Z,52.40
2024-05-09T18:15:29.897Z,52.15
2024-05-09T18:17:56.620Z,52.43
2024-05-09T18:20:32.795Z,54.10
2024-05-09T18:23:07.595Z,53.66
2024-05-09T18:25:34.206Z,54.75
2024-05-09T18:28:02.747Z,55.65
2024-05-09T18:30:34.695Z,55.98
2024-05-09T18:33:04.729Z,57.38
2024-05-09T18:35:32.339Z,58.30
2024-05-09T18:37:59.003Z,59.39
2024-05-09T18:40:32.661Z,59.75
2024-05-09T18:43:03.406Z,60.44
2024-05-09T18:45:30.223Z,60.09
2024-05-09T18:47:56.955Z,61.06
2024-05-09T18:50:32.028Z,61.67
2024-05-09T18:53:03.459Z,62.73
2024-05-09T18:55:29.961Z,63.36
2024-05-09T18:57:56.893Z,65.50
2024-05-09T19:00:33.138Z,64.45
2024-05-09T19:03:05.457Z,65.73
2024-05-09T19:05:33.213Z,65.77
2024-05-09T19:08:00.241Z,68.04
2024-05-09T19:10:33.688Z,67.92
2024-05-09T19:13:04.395Z,66.81
2024-05-09T19:15:33.800Z,68.27
2024-05-09T19:18:00.705Z,67.04
2024-05-09T19:20:33.158Z,66.08
2024-05-09T19:23:01.319Z,66.69
2024-05-09T19:25:27.846Z,66.06
2024-05-09T19:27:54.424Z,66.46
2024-05-09T19:30:29.738Z,66.79
2024-05-09T19:33:04.531Z,66.31
2024-05-09T19:35:31.210Z,67.09
2024-05-09T19:37:58.018Z,68.11
2024-05-09T19:40:30.469Z,68.73
2024-05-09T19:42:59.347Z,68.39
2024-05-09T19:45:34.587Z,69.34
2024-05-09T19:48:09.821Z,68.38
2024-05-09T19:50:45.445Z,67.96
2024-05-09T19:53:16.548Z,67.18
2024-05-09T19:55:47.517Z,67.26
2024-05-09T19:58:21.060Z,67.14
2024-05-09T20:00:58.832Z,67.91
2024-05-09T20:03:44.647Z,67.59
2024-05-09T20:06:19.857Z,69.63
2024-05-09T20:08:53.700Z,69.84
2024-05-09T20:11:39.587Z,70.18
2024-05-09T20:14:08.690Z,69.23
2024-05-09T20:16:53.983Z,69.75
2024-05-09T20:19:36.490Z,72.27
2024-05-09T20:22:24.937Z,73.62
2024-05-09T20:24:54.486Z,72.44
2024-05-09T20:30:14.330Z,72.90
2024-05-09T20:32:50.670Z,72.57
2024-05-09T20:35:25.004Z,73.56
2024-05-09T20:37:54.956Z,74.95
2024-05-09T20:40:32.381Z,74.91
2024-05-09T20:43:11.495Z,75.26
2024-05-09T20:45:40.864Z,75.07
2024-05-09T20:48:10.565Z,76.27
2024-05-09T20:50:41.343Z,77.65
2024-05-09T20:53:13.667Z,76.22
2024-05-09T20:55:42.987Z,79.10
2024-05-09T20:58:14.351Z,79.65
2024-05-09T21:00:44.768Z,79.59
2024-05-09T21:03:21.523Z,80.27
2024-05-09T21:06:15.844Z,80.02
2024-05-09T21:09:00.480Z,79.67
2024-05-09T21:11:37.483Z,79.89
2024-05-09T21:16:58.290Z,81.46
2024-05-09T21:19:25.063Z,81.27
2024-05-09T21:21:54.865Z,81.11
2024-05-09T21:24:21.371Z,82.20
2024-05-09T21:26:47.911Z,82.12
2024-05-09T21:29:14.447Z,83.08
2024-05-09T21:31:42.175Z,83.21
2024-05-09T21:34:08.846Z,83.50
2024-05-09T21:36:35.506Z,83.72
2024-05-09T21:39:02.031Z,84.19
2024-05-09T21:41:28.587Z,84.92
2024-05-09T21:43:55.112Z,85.26
2024-05-09T21:46:21.746Z,86.62
2024-05-09T21:48:48.504Z,85.28
2024-05-09T21:51:15.920Z,86.25
2024-05-09T21:53:42.488Z,86.67
2024-05-09T21:56:08.997Z,87.70
2024-05-09T21:58:35.506Z,88.43
2024-05-09T22:01:03.709Z,88.04
2024-05-09T22:03:30.419Z,88.24
2024-05-09T22:05:57.037Z,88.24
2024-05-09T22:08:23.586Z,88.33
2024-05-09T22:10:51.131Z,88.88
2024-05-09T22:13:20.255Z,88.44
2024-05-09T22:15:47.039Z,88.50
2024-05-09T22:18:13.745Z,89.69
2024-05-09T22:20:45.050Z,89.31
2024-05-09T22:23:13.522Z,89.22
2024-05-09T22:25:40.142Z,88.93
2024-05-09T22:28:07.141Z,88.75
2024-05-09T22:30:37.868Z,88.77
2024-05-09T22:33:11.579Z,89.11
2024-05-09T22:35:39.393Z,90.17
2024-05-09T22:38:06.087Z,90.87
2024-05-09T22:40:42.342Z,90.80
2024-05-09T22:43:17.013Z,90.01
2024-05-09T22:45:43.895Z,90.27
2024-05-09T22:48:11.051Z,90.62
2024-05-09T22:50:37.645Z,91.10
2024-05-09T22:53:04.322Z,90.62
2024-05-09T22:55:30.829Z,90.75
2024-05-09T22:57:57.456Z,91.02
2024-05-09T23:02:53.662Z,92.24
2024-05-09T23:05:20.413Z,92.63
2024-05-09T23:07:47.012Z,94.67
2024-05-09T23:10:20.807Z,94.29
2024-05-09T23:12:51.515Z,94.17
2024-05-09T23:15:18.128Z,94.48
2024-05-09T23:17:45.184Z,93.92
2024-05-09T23:20:14.500Z,93.94
2024-05-09T23:22:41.231Z,93.64
2024-05-09T23:25:07.775Z,93.95
2024-05-09T23:27:34.606Z,95.04
2024-05-09T23:30:01.206Z,94.41
2024-05-09T23:32:27.884Z,95.20
2024-05-09T23:34:54.608Z,99.65
2024-05-09T23:37:21.502Z,98.67
2024-05-09T23:39:48.151Z,97.21
2024-05-09T23:42:14.712Z,97.11
2024-05-09T23:44:41.227Z,97.25
2024-05-09T23:47:10.674Z,96.87
2024-05-09T23:49:37.543Z,97.02
2024-05-09T23:52:04.437Z,97.20
2024-05-09T23:54:31.078Z,96.45
2024-05-09T23:56:57.667Z,95.67
2024-05-09T23:59:24.173Z,96.07
